sensor_id;sensor_type;location;lat;lon;timestamp;P1;durP1;ratioP1;P2;durP2;ratioP2
40459;SDS011;26164;51.138;16.952;2023-10-19T01:43:08;34.78;;;16.17;;
40459;SDS011;26164;51.138;16.952;2023-10-19T01:55:45;32.05;;;14.85;;
40459;SDS011;26164;51.138;16.952;2023-10-19T01:59:31;38.33;;;15.88;;
40459;SDS011;26164;51.138;16.952;2023-10-19T04:01:17;34.08;;;17.33;;
40459;SDS011;26164;51.138;16.952;2023-10-19T04:04:10;40.63;;;19.08;;
40459;SDS011;26164;51.138;16.952;2023-10-19T04:07:10;37.42;;;18.70;;
40459;SDS011;26164;51.138;16.952;2023-10-19T04:27:43;42.28;;;18.35;;
40459;SDS011;26164;51.138;16.952;2023-10-19T04:30:16;41.30;;;18.65;;
40459;SDS011;26164;51.138;16.952;2023-10-19T04:37:25;40.10;;;18.02;;
40459;SDS011;26164;51.138;16.952;2023-10-19T04:40:49;39.08;;;16.42;;
40459;SDS011;26164;51.138;16.952;2023-10-19T04:43:18;38.17;;;18.30;;
40459;SDS011;26164;51.138;16.952;2023-10-19T05:11:48;35.67;;;18.85;;
40459;SDS011;26164;51.138;16.952;2023-10-19T05:17:20;46.08;;;19.83;;
40459;SDS011;26164;51.138;16.952;2023-10-19T05:25:37;39.28;;;18.40;;
40459;SDS011;26164;51.138;16.952;2023-10-19T05:59:27;37.53;;;18.42;;
40459;SDS011;26164;51.138;16.952;2023-10-19T08:54:32;38.75;;;20.38;;
40459;SDS011;26164;51.138;16.952;2023-10-19T08:57:12;40.05;;;20.80;;
40459;SDS011;26164;51.138;16.952;2023-10-19T09:00:06;44.63;;;20.23;;
40459;SDS011;26164;51.138;16.952;2023-10-19T09:03:33;41.42;;;20.50;;
40459;SDS011;26164;51.138;16.952;2023-10-19T09:11:18;38.25;;;19.75;;
40459;SDS011;26164;51.138;16.952;2023-10-19T09:14:12;42.78;;;21.30;;
40459;SDS011;26164;51.138;16.952;2023-10-19T09:21:46;35.75;;;19.85;;
40459;SDS011;26164;51.138;16.952;2023-10-19T09:24:52;39.72;;;21.63;;
40459;SDS011;26164;51.138;16.952;2023-10-19T09:27:54;40.17;;;20.38;;
40459;SDS011;26164;51.138;16.952;2023-10-19T09:30:34;41.45;;;20.75;;
40459;SDS011;26164;51.138;16.952;2023-10-19T09:33:19;39.97;;;20.30;;
40459;SDS011;26164;51.138;16.952;2023-10-19T09:37:04;42.92;;;21.35;;
40459;SDS011;26164;51.138;16.952;2023-10-19T09:40:09;40.80;;;21.55;;
40459;SDS011;26164;51.138;16.952;2023-10-19T09:46:41;43.08;;;21.42;;
40459;SDS011;26164;51.138;16.952;2023-10-19T09:50:00;44.42;;;24.10;;
40459;SDS011;26164;51.138;16.952;2023-10-19T10:08:36;44.15;;;23.48;;
40459;SDS011;26164;51.138;16.952;2023-10-19T10:11:17;48.17;;;23.48;;
40459;SDS011;26164;51.138;16.952;2023-10-19T10:13:55;49.33;;;23.48;;
40459;SDS011;26164;51.138;16.952;2023-10-19T10:16:24;45.58;;;24.38;;
40459;SDS011;26164;51.138;16.952;2023-10-19T10:18:59;53.17;;;23.75;;
40459;SDS011;26164;51.138;16.952;2023-10-19T10:21:27;49.67;;;25.88;;
40459;SDS011;26164;51.138;16.952;2023-10-19T10:23:58;49.15;;;25.08;;
40459;SDS011;26164;51.138;16.952;2023-10-19T10:26:27;50.35;;;24.88;;
40459;SDS011;26164;51.138;16.952;2023-10-19T10:29:08;49.03;;;25.02;;
40459;SDS011;26164;51.138;16.952;2023-10-19T10:31:52;43.95;;;23.77;;
40459;SDS011;26164;51.138;16.952;2023-10-19T10:37:19;51.25;;;25.80;;
40459;SDS011;26164;51.138;16.952;2023-10-19T10:39:46;46.35;;;24.65;;
40459;SDS011;26164;51.138;16.952;2023-10-19T10:42:16;56.85;;;26.95;;
40459;SDS011;26164;51.138;16.952;2023-10-19T10:44:43;49.88;;;25.77;;
40459;SDS011;26164;51.138;16.952;2023-10-19T10:47:23;47.67;;;26.10;;
40459;SDS011;26164;51.138;16.952;2023-10-19T10:49:57;49.55;;;25.73;;
40459;SDS011;26164;51.138;16.952;2023-10-19T10:52:29;50.03;;;25.77;;
40459;SDS011;26164;51.138;16.952;2023-10-19T10:55:10;50.80;;;26.90;;
40459;SDS011;26164;51.138;16.952;2023-10-19T10:57:42;49.40;;;27.10;;
40459;SDS011;26164;51.138;16.952;2023-10-19T11:00:09;45.63;;;26.30;;
40459;SDS011;26164;51.138;16.952;2023-10-19T11:02:47;46.40;;;26.77;;
40459;SDS011;26164;51.138;16.952;2023-10-19T11:05:26;59.58;;;28.05;;
40459;SDS011;26164;51.138;16.952;2023-10-19T11:10:30;52.00;;;27.30;;
40459;SDS011;26164;51.138;16.952;2023-10-19T11:13:07;51.17;;;26.27;;
40459;SDS011;26164;51.138;16.952;2023-10-19T11:15:37;52.05;;;29.60;;
40459;SDS011;26164;51.138;16.952;2023-10-19T11:18:07;54.58;;;28.25;;
40459;SDS011;26164;51.138;16.952;2023-10-19T11:20:35;54.85;;;28.90;;
40459;SDS011;26164;51.138;16.952;2023-10-19T11:23:02;55.47;;;29.13;;
40459;SDS011;26164;51.138;16.952;2023-10-19T11:25:31;53.00;;;28.77;;
40459;SDS011;26164;51.138;16.952;2023-10-19T11:28:07;56.20;;;30.20;;
40459;SDS011;26164;51.138;16.952;2023-10-19T11:30:43;52.85;;;29.60;;
40459;SDS011;26164;51.138;16.952;2023-10-19T11:33:10;55.00;;;29.67;;
40459;SDS011;26164;51.138;16.952;2023-10-19T11:36:43;48.10;;;27.98;;
40459;SDS011;26164;51.138;16.952;2023-10-19T11:39:39;54.00;;;28.45;;
40459;SDS011;26164;51.138;16.952;2023-10-19T11:42:55;48.55;;;27.88;;
40459;SDS011;26164;51.138;16.952;2023-10-19T11:45:27;52.38;;;29.55;;
40459;SDS011;26164;51.138;16.952;2023-10-19T11:48:01;51.83;;;28.50;;
40459;SDS011;26164;51.138;16.952;2023-10-19T11:50:42;47.67;;;26.55;;
40459;SDS011;26164;51.138;16.952;2023-10-19T11:53:08;50.95;;;28.27;;
40459;SDS011;26164;51.138;16.952;2023-10-19T11:55:44;53.75;;;28.08;;
40459;SDS011;26164;51.138;16.952;2023-10-19T11:58:21;45.95;;;26.98;;
40459;SDS011;26164;51.138;16.952;2023-10-19T12:03:24;49.42;;;26.90;;
40459;SDS011;26164;51.138;16.952;2023-10-19T12:05:51;47.95;;;27.58;;
40459;SDS011;26164;51.138;16.952;2023-10-19T12:09:11;52.83;;;26.45;;
40459;SDS011;26164;51.138;16.952;2023-10-19T12:11:23;46.72;;;27.75;;
40459;SDS011;26164;51.138;16.952;2023-10-19T12:13:50;48.58;;;28.17;;
40459;SDS011;26164;51.138;16.952;2023-10-19T12:16:21;49.90;;;28.85;;
40459;SDS011;26164;51.138;16.952;2023-10-19T12:18:49;51.33;;;28.92;;
40459;SDS011;26164;51.138;16.952;2023-10-19T12:21:20;49.28;;;28.65;;
40459;SDS011;26164;51.138;16.952;2023-10-19T12:23:55;52.78;;;30.45;;
40459;SDS011;26164;51.138;16.952;2023-10-19T12:26:25;52.15;;;30.17;;
40459;SDS011;26164;51.138;16.952;2023-10-19T12:28:54;53.30;;;32.30;;
40459;SDS011;26164;51.138;16.952;2023-10-19T12:31:29;61.50;;;32.88;;
40459;SDS011;26164;51.138;16.952;2023-10-19T12:33:56;53.53;;;30.50;;
40459;SDS011;26164;51.138;16.952;2023-10-19T12:36:31;58.45;;;31.50;;
40459;SDS011;26164;51.138;16.952;2023-10-19T12:39:01;58.40;;;31.17;;
40459;SDS011;26164;51.138;16.952;2023-10-19T12:41:34;58.20;;;31.35;;
40459;SDS011;26164;51.138;16.952;2023-10-19T12:44:04;57.88;;;30.17;;
40459;SDS011;26164;51.138;16.952;2023-10-19T12:46:40;59.97;;;29.63;;
40459;SDS011;26164;51.138;16.952;2023-10-19T12:49:12;55.40;;;29.48;;
40459;SDS011;26164;51.138;16.952;2023-10-19T12:52:01;55.50;;;28.67;;
40459;SDS011;26164;51.138;16.952;2023-10-19T12:54:45;52.40;;;27.52;;
40459;SDS011;26164;51.138;16.952;2023-10-19T12:57:21;49.97;;;26.75;;
40459;SDS011;26164;51.138;16.952;2023-10-19T13:00:04;52.08;;;29.10;;
40459;SDS011;26164;51.138;16.952;2023-10-19T13:02:56;50.70;;;28.08;;
40459;SDS011;26164;51.138;16.952;2023-10-19T13:05:40;52.10;;;26.88;;
40459;SDS011;26164;51.138;16.952;2023-10-19T13:08:44;50.45;;;27.80;;
40459;SDS011;26164;51.138;16.952;2023-10-19T13:15:29;56.15;;;29.48;;
40459;SDS011;26164;51.138;16.952;2023-10-19T13:19:04;49.85;;;27.42;;
40459;SDS011;26164;51.138;16.952;2023-10-19T13:30:59;55.83;;;30.05;;
40459;SDS011;26164;51.138;16.952;2023-10-19T14:48:21;57.90;;;30.98;;
40459;SDS011;26164;51.138;16.952;2023-10-19T16:26:38;91.78;;;38.15;;
40459;SDS011;26164;51.138;16.952;2023-10-19T16:30:11;97.50;;;37.90;;
40459;SDS011;26164;51.138;16.952;2023-10-19T16:45:39;101.20;;;39.78;;
40459;SDS011;26164;51.138;16.952;2023-10-19T16:54:43;108.00;;;41.75;;
40459;SDS011;26164;51.138;16.952;2023-10-19T16:57:26;110.32;;;41.28;;
40459;SDS011;26164;51.138;16.952;2023-10-19T17:00:27;108.68;;;41.60;;
40459;SDS011;26164;51.138;16.952;2023-10-19T17:03:12;108.72;;;41.42;;
40459;SDS011;26164;51.138;16.952;2023-10-19T17:05:44;116.22;;;42.53;;
40459;SDS011;26164;51.138;16.952;2023-10-19T17:08:10;113.85;;;42.78;;
40459;SDS011;26164;51.138;16.952;2023-10-19T17:13:40;108.13;;;40.17;;
40459;SDS011;26164;51.138;16.952;2023-10-19T17:16:11;117.35;;;40.20;;
40459;SDS011;26164;51.138;16.952;2023-10-19T17:18:44;123.55;;;44.40;;
40459;SDS011;26164;51.138;16.952;2023-10-19T17:23:50;115.68;;;42.63;;
40459;SDS011;26164;51.138;16.952;2023-10-19T17:26:24;127.88;;;43.03;;
40459;SDS011;26164;51.138;16.952;2023-10-19T17:32:15;126.63;;;44.10;;
40459;SDS011;26164;51.138;16.952;2023-10-19T17:34:48;127.07;;;45.80;;
40459;SDS011;26164;51.138;16.952;2023-10-19T17:37:15;124.35;;;41.70;;
40459;SDS011;26164;51.138;16.952;2023-10-19T17:39:42;134.55;;;46.70;;
40459;SDS011;26164;51.138;16.952;2023-10-19T17:42:08;141.88;;;45.63;;
40459;SDS011;26164;51.138;16.952;2023-10-19T17:44:46;136.10;;;45.45;;
40459;SDS011;26164;51.138;16.952;2023-10-19T17:47:32;137.23;;;46.40;;
40459;SDS011;26164;51.138;16.952;2023-10-19T17:49:59;121.40;;;44.40;;
40459;SDS011;26164;51.138;16.952;2023-10-19T17:52:24;133.73;;;44.78;;
40459;SDS011;26164;51.138;16.952;2023-10-19T17:54:51;133.05;;;45.97;;
40459;SDS011;26164;51.138;16.952;2023-10-19T17:57:19;136.68;;;46.28;;
40459;SDS011;26164;51.138;16.952;2023-10-19T18:00:01;136.60;;;45.17;;
40459;SDS011;26164;51.138;16.952;2023-10-19T18:02:31;134.45;;;45.70;;
40459;SDS011;26164;51.138;16.952;2023-10-19T18:04:59;136.50;;;47.60;;
40459;SDS011;26164;51.138;16.952;2023-10-19T18:07:46;137.10;;;45.05;;
40459;SDS011;26164;51.138;16.952;2023-10-19T18:10:14;138.70;;;45.63;;
40459;SDS011;26164;51.138;16.952;2023-10-19T18:12:41;135.40;;;48.47;;
40459;SDS011;26164;51.138;16.952;2023-10-19T18:15:25;155.77;;;48.80;;
40459;SDS011;26164;51.138;16.952;2023-10-19T18:18:10;136.93;;;46.30;;
40459;SDS011;26164;51.138;16.952;2023-10-19T18:20:48;153.05;;;48.80;;
40459;SDS011;26164;51.138;16.952;2023-10-19T18:23:17;147.82;;;49.55;;
40459;SDS011;26164;51.138;16.952;2023-10-19T18:28:55;147.88;;;49.38;;
40459;SDS011;26164;51.138;16.952;2023-10-19T18:57:02;162.07;;;47.47;;
40459;SDS011;26164;51.138;16.952;2023-10-19T19:00:09;252.52;;;54.03;;
40459;SDS011;26164;51.138;16.952;2023-10-19T19:02:36;172.73;;;49.65;;
40459;SDS011;26164;51.138;16.952;2023-10-19T19:09:58;258.05;;;52.33;;
40459;SDS011;26164;51.138;16.952;2023-10-19T19:13:15;190.57;;;51.25;;
40459;SDS011;26164;51.138;16.952;2023-10-19T19:15:45;220.30;;;53.35;;
40459;SDS011;26164;51.138;16.952;2023-10-19T19:18:16;359.67;;;56.50;;
40459;SDS011;26164;51.138;16.952;2023-10-19T19:23:55;411.70;;;54.75;;
40459;SDS011;26164;51.138;16.952;2023-10-19T19:26:42;279.30;;;53.40;;
40459;SDS011;26164;51.138;16.952;2023-10-19T19:29:47;239.23;;;53.67;;
40459;SDS011;26164;51.138;16.952;2023-10-19T19:32:35;231.98;;;53.00;;
40459;SDS011;26164;51.138;16.952;2023-10-19T19:35:51;321.00;;;52.50;;
40459;SDS011;26164;51.138;16.952;2023-10-19T19:58:46;307.05;;;53.47;;
40459;SDS011;26164;51.138;16.952;2023-10-19T20:06:37;310.80;;;53.05;;
40459;SDS011;26164;51.138;16.952;2023-10-19T20:36:47;572.10;;;63.55;;
40459;SDS011;26164;51.138;16.952;2023-10-19T20:39:31;311.65;;;55.80;;
40459;SDS011;26164;51.138;16.952;2023-10-19T20:42:17;293.58;;;52.03;;
40459;SDS011;26164;51.138;16.952;2023-10-19T20:45:14;948.50;;;72.72;;
40459;SDS011;26164;51.138;16.952;2023-10-19T20:48:24;621.60;;;62.30;;
40459;SDS011;26164;51.138;16.952;2023-10-19T20:50:54;500.02;;;58.30;;
40459;SDS011;26164;51.138;16.952;2023-10-19T20:53:23;755.47;;;69.78;;
40459;SDS011;26164;51.138;16.952;2023-10-19T20:55:58;376.15;;;58.72;;
40459;SDS011;26164;51.138;16.952;2023-10-19T20:58:25;552.33;;;61.50;;
40459;SDS011;26164;51.138;16.952;2023-10-19T21:00:59;729.55;;;69.30;;
40459;SDS011;26164;51.138;16.952;2023-10-19T21:03:46;589.88;;;63.80;;
40459;SDS011;26164;51.138;16.952;2023-10-19T21:06:14;446.73;;;61.13;;
40459;SDS011;26164;51.138;16.952;2023-10-19T21:08:43;933.15;;;74.15;;
40459;SDS011;26164;51.138;16.952;2023-10-19T21:11:14;586.97;;;62.67;;
40459;SDS011;26164;51.138;16.952;2023-10-19T21:13:45;1167.78;;;80.60;;
40459;SDS011;26164;51.138;16.952;2023-10-19T21:16:14;661.35;;;62.67;;
40459;SDS011;26164;51.138;16.952;2023-10-19T21:18:43;551.25;;;61.83;;
40459;SDS011;26164;51.138;16.952;2023-10-19T21:21:18;424.02;;;58.17;;
40459;SDS011;26164;51.138;16.952;2023-10-19T21:24:24;269.73;;;53.28;;
40459;SDS011;26164;51.138;16.952;2023-10-19T21:31:24;375.33;;;54.90;;
40459;SDS011;26164;51.138;16.952;2023-10-19T21:34:23;554.80;;;59.55;;
40459;SDS011;26164;51.138;16.952;2023-10-19T21:37:50;971.90;;;72.32;;
40459;SDS011;26164;51.138;16.952;2023-10-19T21:40:46;372.58;;;55.25;;
40459;SDS011;26164;51.138;16.952;2023-10-19T21:43:22;405.95;;;57.28;;
40459;SDS011;26164;51.138;16.952;2023-10-19T21:46:09;348.38;;;56.95;;
40459;SDS011;26164;51.138;16.952;2023-10-19T21:49:08;242.15;;;55.75;;
40459;SDS011;26164;51.138;16.952;2023-10-19T21:52:06;238.27;;;53.72;;
40459;SDS011;26164;51.138;16.952;2023-10-19T21:55:17;203.82;;;52.88;;
40459;SDS011;26164;51.138;16.952;2023-10-19T21:58:23;181.07;;;49.92;;
40459;SDS011;26164;51.138;16.952;2023-10-19T22:01:58;216.02;;;50.47;;
40459;SDS011;26164;51.138;16.952;2023-10-19T22:04:28;418.00;;;56.75;;
40459;SDS011;26164;51.138;16.952;2023-10-19T22:06:57;374.65;;;58.03;;
40459;SDS011;26164;51.138;16.952;2023-10-19T22:09:33;225.15;;;54.20;;
40459;SDS011;26164;51.138;16.952;2023-10-19T22:12:06;391.40;;;55.13;;
40459;SDS011;26164;51.138;16.952;2023-10-19T22:14:53;242.05;;;53.28;;
40459;SDS011;26164;51.138;16.952;2023-10-19T22:17:27;235.15;;;52.50;;
40459;SDS011;26164;51.138;16.952;2023-10-19T22:20:19;187.63;;;51.33;;
40459;SDS011;26164;51.138;16.952;2023-10-19T22:22:51;224.20;;;51.88;;
40459;SDS011;26164;51.138;16.952;2023-10-19T22:25:21;252.35;;;54.88;;
40459;SDS011;26164;51.138;16.952;2023-10-19T22:27:48;282.95;;;54.58;;
40459;SDS011;26164;51.138;16.952;2023-10-19T22:30:27;208.88;;;53.92;;
40459;SDS011;26164;51.138;16.952;2023-10-19T22:32:56;221.20;;;54.10;;
40459;SDS011;26164;51.138;16.952;2023-10-19T22:35:25;241.18;;;52.58;;
40459;SDS011;26164;51.138;16.952;2023-10-19T22:37:53;200.60;;;55.42;;
40459;SDS011;26164;51.138;16.952;2023-10-19T22:40:22;257.90;;;53.80;;
40459;SDS011;26164;51.138;16.952;2023-10-19T22:42:48;258.48;;;53.13;;
40459;SDS011;26164;51.138;16.952;2023-10-19T22:45:14;193.65;;;51.13;;
40459;SDS011;26164;51.138;16.952;2023-10-19T22:47:47;214.15;;;49.85;;
40459;SDS011;26164;51.138;16.952;2023-10-19T22:50:45;271.67;;;55.42;;
40459;SDS011;26164;51.138;16.952;2023-10-19T22:53:34;247.90;;;55.00;;
40459;SDS011;26164;51.138;16.952;2023-10-19T22:56:18;366.42;;;56.85;;
40459;SDS011;26164;51.138;16.952;2023-10-19T22:58:44;348.70;;;55.85;;
40459;SDS011;26164;51.138;16.952;2023-10-19T23:01:14;239.57;;;51.08;;
40459;SDS011;26164;51.138;16.952;2023-10-19T23:03:40;302.45;;;55.63;;
40459;SDS011;26164;51.138;16.952;2023-10-19T23:06:09;319.08;;;52.50;;
40459;SDS011;26164;51.138;16.952;2023-10-19T23:08:37;412.15;;;57.92;;
40459;SDS011;26164;51.138;16.952;2023-10-19T23:11:07;328.95;;;55.30;;
40459;SDS011;26164;51.138;16.952;2023-10-19T23:13:35;455.33;;;59.10;;
40459;SDS011;26164;51.138;16.952;2023-10-19T23:16:03;315.73;;;56.08;;
40459;SDS011;26164;51.138;16.952;2023-10-19T23:18:32;329.48;;;54.97;;
40459;SDS011;26164;51.138;16.952;2023-10-19T23:21:04;223.13;;;51.25;;
40459;SDS011;26164;51.138;16.952;2023-10-19T23:23:33;255.93;;;53.35;;
40459;SDS011;26164;51.138;16.952;2023-10-19T23:26:00;224.85;;;50.25;;
40459;SDS011;26164;51.138;16.952;2023-10-19T23:28:28;241.40;;;53.83;;
40459;SDS011;26164;51.138;16.952;2023-10-19T23:30:58;257.60;;;52.22;;
40459;SDS011;26164;51.138;16.952;2023-10-19T23:33:45;273.70;;;53.30;;
40459;SDS011;26164;51.138;16.952;2023-10-19T23:36:25;317.08;;;53.50;;
40459;SDS011;26164;51.138;16.952;2023-10-19T23:38:53;452.90;;;55.20;;
40459;SDS011;26164;51.138;16.952;2023-10-19T23:41:18;306.33;;;52.08;;
40459;SDS011;26164;51.138;16.952;2023-10-19T23:43:46;279.20;;;51.30;;
40459;SDS011;26164;51.138;16.952;2023-10-19T23:46:12;313.65;;;53.05;;
40459;SDS011;26164;51.138;16.952;2023-10-19T23:48:39;297.00;;;54.20;;
40459;SDS011;26164;51.138;16.952;2023-10-19T23:51:09;381.70;;;56.67;;
40459;SDS011;26164;51.138;16.952;2023-10-19T23:53:37;373.50;;;52.67;;
40459;SDS011;26164;51.138;16.952;2023-10-19T23:56:03;557.05;;;61.35;;
40459;SDS011;26164;51.138;16.952;2023-10-19T23:58:31;334.95;;;52.85;;
